sensor_id;sensor_type;location;lat;lon;timestamp;P1;durP1;ratioP1;P2;durP2;ratioP2
46765;SDS011;32527;51.986;5.842;2023-04-02T00:05:27;15.93;;;9.65;;
46765;SDS011;32527;51.986;5.842;2023-04-02T00:07:59;12.50;;;8.82;;
46765;SDS011;32527;51.986;5.842;2023-04-02T00:15:46;15.35;;;8.70;;
46765;SDS011;32527;51.986;5.842;2023-04-02T00:18:19;11.50;;;7.97;;
46765;SDS011;32527;51.986;5.842;2023-04-02T00:20:46;16.70;;;8.75;;
46765;SDS011;32527;51.986;5.842;2023-04-02T00:23:16;11.68;;;8.07;;
46765;SDS011;32527;51.986;5.842;2023-04-02T00:25:43;14.27;;;10.05;;
46765;SDS011;32527;51.986;5.842;2023-04-02T00:28:14;16.13;;;9.18;;
46765;SDS011;32527;51.986;5.842;2023-04-02T00:30:45;15.45;;;9.73;;
46765;SDS011;32527;51.986;5.842;2023-04-02T00:33:21;17.98;;;11.88;;
46765;SDS011;32527;51.986;5.842;2023-04-02T00:35:50;15.48;;;10.88;;
46765;SDS011;32527;51.986;5.842;2023-04-02T00:38:24;14.90;;;9.95;;
46765;SDS011;32527;51.986;5.842;2023-04-02T00:40:53;15.50;;;10.52;;
46765;SDS011;32527;51.986;5.842;2023-04-02T00:43:23;18.38;;;11.85;;
46765;SDS011;32527;51.986;5.842;2023-04-02T00:45:59;14.30;;;10.57;;
46765;SDS011;32527;51.986;5.842;2023-04-02T00:50:57;16.35;;;11.00;;
46765;SDS011;32527;51.986;5.842;2023-04-02T00:53:32;15.95;;;11.00;;
46765;SDS011;32527;51.986;5.842;2023-04-02T00:55:58;16.75;;;10.70;;
46765;SDS011;32527;51.986;5.842;2023-04-02T00:58:33;18.45;;;10.38;;
46765;SDS011;32527;51.986;5.842;2023-04-02T01:01:01;13.60;;;8.57;;
46765;SDS011;32527;51.986;5.842;2023-04-02T01:03:33;16.33;;;10.30;;
46765;SDS011;32527;51.986;5.842;2023-04-02T01:16:57;12.75;;;8.75;;
46765;SDS011;32527;51.986;5.842;2023-04-02T01:22:33;12.30;;;9.52;;
46765;SDS011;32527;51.986;5.842;2023-04-02T01:25:22;16.17;;;9.68;;
46765;SDS011;32527;51.986;5.842;2023-04-02T01:30:34;13.02;;;8.07;;
46765;SDS011;32527;51.986;5.842;2023-04-02T01:33:01;11.45;;;8.60;;
46765;SDS011;32527;51.986;5.842;2023-04-02T01:35:29;11.40;;;7.88;;
46765;SDS011;32527;51.986;5.842;2023-04-02T01:38:02;15.27;;;8.15;;
46765;SDS011;32527;51.986;5.842;2023-04-02T01:40:39;11.48;;;7.50;;
46765;SDS011;32527;51.986;5.842;2023-04-02T01:43:21;10.98;;;8.30;;
46765;SDS011;32527;51.986;5.842;2023-04-02T01:46:22;12.10;;;8.55;;
46765;SDS011;32527;51.986;5.842;2023-04-02T01:48:54;13.73;;;8.02;;
46765;SDS011;32527;51.986;5.842;2023-04-02T01:51:33;16.63;;;9.65;;
46765;SDS011;32527;51.986;5.842;2023-04-02T01:54:04;18.63;;;9.00;;
46765;SDS011;32527;51.986;5.842;2023-04-02T01:56:31;14.13;;;8.95;;
46765;SDS011;32527;51.986;5.842;2023-04-02T01:58:59;13.45;;;8.82;;
46765;SDS011;32527;51.986;5.842;2023-04-02T02:01:34;18.50;;;11.27;;
46765;SDS011;32527;51.986;5.842;2023-04-02T02:04:13;19.60;;;11.77;;
46765;SDS011;32527;51.986;5.842;2023-04-02T02:06:41;19.48;;;12.52;;
46765;SDS011;32527;51.986;5.842;2023-04-02T02:09:10;23.35;;;12.43;;
46765;SDS011;32527;51.986;5.842;2023-04-02T02:11:41;19.92;;;13.15;;
46765;SDS011;32527;51.986;5.842;2023-04-02T02:14:17;23.02;;;13.90;;
46765;SDS011;32527;51.986;5.842;2023-04-02T02:16:46;24.15;;;13.52;;
46765;SDS011;32527;51.986;5.842;2023-04-02T02:19:19;19.55;;;13.30;;
46765;SDS011;32527;51.986;5.842;2023-04-02T02:21:57;19.25;;;13.32;;
46765;SDS011;32527;51.986;5.842;2023-04-02T02:24:47;23.67;;;13.80;;
46765;SDS011;32527;51.986;5.842;2023-04-02T02:29:46;20.13;;;13.00;;
46765;SDS011;32527;51.986;5.842;2023-04-02T02:32:17;20.55;;;13.30;;
46765;SDS011;32527;51.986;5.842;2023-04-02T02:34:53;17.98;;;13.63;;
46765;SDS011;32527;51.986;5.842;2023-04-02T02:37:28;20.75;;;12.85;;
46765;SDS011;32527;51.986;5.842;2023-04-02T02:39:59;20.80;;;13.02;;
46765;SDS011;32527;51.986;5.842;2023-04-02T02:43:12;17.58;;;11.65;;
46765;SDS011;32527;51.986;5.842;2023-04-02T02:45:24;15.20;;;10.45;;
46765;SDS011;32527;51.986;5.842;2023-04-02T02:47:53;14.38;;;10.00;;
46765;SDS011;32527;51.986;5.842;2023-04-02T02:50:27;17.05;;;10.20;;
46765;SDS011;32527;51.986;5.842;2023-04-02T02:52:57;17.20;;;9.57;;
46765;SDS011;32527;51.986;5.842;2023-04-02T02:55:30;21.17;;;10.60;;
46765;SDS011;32527;51.986;5.842;2023-04-02T02:58:12;15.48;;;9.38;;
46765;SDS011;32527;51.986;5.842;2023-04-02T03:00:51;16.15;;;9.38;;
46765;SDS011;32527;51.986;5.842;2023-04-02T03:03:21;12.93;;;8.60;;
46765;SDS011;32527;51.986;5.842;2023-04-02T03:05:56;13.95;;;9.15;;
46765;SDS011;32527;51.986;5.842;2023-04-02T03:08:33;14.40;;;9.65;;
46765;SDS011;32527;51.986;5.842;2023-04-02T03:11:12;16.77;;;9.40;;
46765;SDS011;32527;51.986;5.842;2023-04-02T03:13:49;13.50;;;8.75;;
46765;SDS011;32527;51.986;5.842;2023-04-02T03:16:27;15.05;;;8.68;;
46765;SDS011;32527;51.986;5.842;2023-04-02T03:19:09;13.68;;;7.72;;
46765;SDS011;32527;51.986;5.842;2023-04-02T03:21:50;11.23;;;7.80;;
46765;SDS011;32527;51.986;5.842;2023-04-02T03:24:26;16.80;;;7.85;;
46765;SDS011;32527;51.986;5.842;2023-04-02T03:26:55;10.60;;;7.20;;
46765;SDS011;32527;51.986;5.842;2023-04-02T03:29:31;12.35;;;7.55;;
46765;SDS011;32527;51.986;5.842;2023-04-02T03:32:02;10.65;;;6.60;;
46765;SDS011;32527;51.986;5.842;2023-04-02T03:34:37;18.98;;;8.82;;
46765;SDS011;32527;51.986;5.842;2023-04-02T03:37:12;13.05;;;8.48;;
46765;SDS011;32527;51.986;5.842;2023-04-02T03:39:58;14.00;;;8.63;;
46765;SDS011;32527;51.986;5.842;2023-04-02T03:42:43;15.85;;;8.60;;
46765;SDS011;32527;51.986;5.842;2023-04-02T03:45:18;18.13;;;8.70;;
46765;SDS011;32527;51.986;5.842;2023-04-02T03:47:52;13.18;;;9.38;;
46765;SDS011;32527;51.986;5.842;2023-04-02T03:50:28;16.90;;;9.77;;
46765;SDS011;32527;51.986;5.842;2023-04-02T03:53:00;17.92;;;9.20;;
46765;SDS011;32527;51.986;5.842;2023-04-02T03:55:28;13.95;;;9.57;;
46765;SDS011;32527;51.986;5.842;2023-04-02T04:00:43;13.43;;;8.73;;
46765;SDS011;32527;51.986;5.842;2023-04-02T04:05:48;12.55;;;9.35;;
46765;SDS011;32527;51.986;5.842;2023-04-02T04:08:24;18.15;;;10.68;;
46765;SDS011;32527;51.986;5.842;2023-04-02T04:10:58;16.48;;;9.48;;
46765;SDS011;32527;51.986;5.842;2023-04-02T04:13:33;19.65;;;12.52;;
46765;SDS011;32527;51.986;5.842;2023-04-02T04:16:08;23.48;;;11.52;;
46765;SDS011;32527;51.986;5.842;2023-04-02T04:22:12;15.30;;;10.35;;
46765;SDS011;32527;51.986;5.842;2023-04-02T04:25:03;16.52;;;11.93;;
46765;SDS011;32527;51.986;5.842;2023-04-02T04:27:37;17.88;;;10.95;;
46765;SDS011;32527;51.986;5.842;2023-04-02T04:32:46;17.60;;;10.32;;
46765;SDS011;32527;51.986;5.842;2023-04-02T04:35:27;14.55;;;9.25;;
46765;SDS011;32527;51.986;5.842;2023-04-02T04:38:12;16.67;;;9.13;;
46765;SDS011;32527;51.986;5.842;2023-04-02T04:40:55;13.60;;;8.43;;
46765;SDS011;32527;51.986;5.842;2023-04-02T04:43:32;15.60;;;9.30;;
46765;SDS011;32527;51.986;5.842;2023-04-02T04:46:09;16.42;;;8.65;;
46765;SDS011;32527;51.986;5.842;2023-04-02T04:48:45;12.00;;;8.77;;
46765;SDS011;32527;51.986;5.842;2023-04-02T04:51:16;12.77;;;7.97;;
46765;SDS011;32527;51.986;5.842;2023-04-02T04:53:46;16.00;;;8.73;;
46765;SDS011;32527;51.986;5.842;2023-04-02T04:56:17;13.52;;;7.25;;
46765;SDS011;32527;51.986;5.842;2023-04-02T04:59:04;10.77;;;6.80;;
46765;SDS011;32527;51.986;5.842;2023-04-02T05:01:45;12.45;;;6.43;;
46765;SDS011;32527;51.986;5.842;2023-04-02T05:04:22;11.68;;;6.78;;
46765;SDS011;32527;51.986;5.842;2023-04-02T05:07:00;15.02;;;7.75;;
46765;SDS011;32527;51.986;5.842;2023-04-02T05:09:33;8.80;;;5.93;;
46765;SDS011;32527;51.986;5.842;2023-04-02T05:14:50;9.20;;;5.68;;
46765;SDS011;32527;51.986;5.842;2023-04-02T05:20:13;8.63;;;5.18;;
46765;SDS011;32527;51.986;5.842;2023-04-02T05:22:51;14.15;;;5.60;;
46765;SDS011;32527;51.986;5.842;2023-04-02T05:25:28;9.40;;;4.22;;
46765;SDS011;32527;51.986;5.842;2023-04-02T05:30:58;7.40;;;4.70;;
46765;SDS011;32527;51.986;5.842;2023-04-02T05:33:29;11.95;;;4.20;;
46765;SDS011;32527;51.986;5.842;2023-04-02T05:36:07;7.68;;;4.82;;
46765;SDS011;32527;51.986;5.842;2023-04-02T05:38:44;7.43;;;4.63;;
46765;SDS011;32527;51.986;5.842;2023-04-02T05:41:21;8.18;;;4.78;;
46765;SDS011;32527;51.986;5.842;2023-04-02T05:43:49;7.38;;;3.92;;
46765;SDS011;32527;51.986;5.842;2023-04-02T05:46:22;10.40;;;4.80;;
46765;SDS011;32527;51.986;5.842;2023-04-02T05:48:54;6.50;;;3.95;;
46765;SDS011;32527;51.986;5.842;2023-04-02T05:51:24;7.40;;;3.53;;
46765;SDS011;32527;51.986;5.842;2023-04-02T05:54:02;6.13;;;3.22;;
46765;SDS011;32527;51.986;5.842;2023-04-02T05:56:36;8.23;;;3.53;;
46765;SDS011;32527;51.986;5.842;2023-04-02T05:59:10;5.43;;;2.92;;
46765;SDS011;32527;51.986;5.842;2023-04-02T06:01:59;7.78;;;2.97;;
46765;SDS011;32527;51.986;5.842;2023-04-02T06:04:43;3.55;;;2.45;;
46765;SDS011;32527;51.986;5.842;2023-04-02T06:07:22;9.48;;;2.97;;
46765;SDS011;32527;51.986;5.842;2023-04-02T06:12:37;4.85;;;2.83;;
46765;SDS011;32527;51.986;5.842;2023-04-02T06:15:13;8.00;;;2.72;;
46765;SDS011;32527;51.986;5.842;2023-04-02T06:17:50;10.07;;;3.50;;
46765;SDS011;32527;51.986;5.842;2023-04-02T06:20:25;5.45;;;2.45;;
46765;SDS011;32527;51.986;5.842;2023-04-02T06:23:02;11.20;;;3.22;;
46765;SDS011;32527;51.986;5.842;2023-04-02T06:25:35;6.45;;;3.28;;
46765;SDS011;32527;51.986;5.842;2023-04-02T06:28:11;12.55;;;3.28;;
46765;SDS011;32527;51.986;5.842;2023-04-02T06:30:53;6.43;;;2.85;;
46765;SDS011;32527;51.986;5.842;2023-04-02T06:33:24;5.28;;;3.00;;
46765;SDS011;32527;51.986;5.842;2023-04-02T06:35:50;11.65;;;3.42;;
46765;SDS011;32527;51.986;5.842;2023-04-02T06:38:28;8.02;;;3.53;;
46765;SDS011;32527;51.986;5.842;2023-04-02T06:41:09;9.23;;;3.17;;
46765;SDS011;32527;51.986;5.842;2023-04-02T06:43:57;11.73;;;3.42;;
46765;SDS011;32527;51.986;5.842;2023-04-02T06:46:55;10.13;;;3.15;;
46765;SDS011;32527;51.986;5.842;2023-04-02T06:49:25;4.90;;;3.00;;
46765;SDS011;32527;51.986;5.842;2023-04-02T06:51:57;10.85;;;3.42;;
46765;SDS011;32527;51.986;5.842;2023-04-02T06:54:26;7.35;;;2.92;;
46765;SDS011;32527;51.986;5.842;2023-04-02T06:56:56;8.63;;;3.70;;
46765;SDS011;32527;51.986;5.842;2023-04-02T06:59:35;10.15;;;4.10;;
46765;SDS011;32527;51.986;5.842;2023-04-02T07:04:54;7.55;;;3.38;;
46765;SDS011;32527;51.986;5.842;2023-04-02T07:07:27;7.70;;;3.33;;
46765;SDS011;32527;51.986;5.842;2023-04-02T07:09:53;6.85;;;3.08;;
46765;SDS011;32527;51.986;5.842;2023-04-02T07:12:24;7.97;;;3.17;;
46765;SDS011;32527;51.986;5.842;2023-04-02T07:14:51;10.02;;;3.60;;
46765;SDS011;32527;51.986;5.842;2023-04-02T07:17:18;9.70;;;3.40;;
46765;SDS011;32527;51.986;5.842;2023-04-02T07:19:45;6.05;;;3.20;;
46765;SDS011;32527;51.986;5.842;2023-04-02T07:22:15;12.55;;;4.05;;
46765;SDS011;32527;51.986;5.842;2023-04-02T07:24:42;7.55;;;3.40;;
46765;SDS011;32527;51.986;5.842;2023-04-02T07:27:09;5.78;;;3.58;;
46765;SDS011;32527;51.986;5.842;2023-04-02T07:29:35;11.23;;;3.92;;
46765;SDS011;32527;51.986;5.842;2023-04-02T07:32:06;6.50;;;3.40;;
46765;SDS011;32527;51.986;5.842;2023-04-02T07:34:33;10.35;;;3.85;;
46765;SDS011;32527;51.986;5.842;2023-04-02T07:36:59;7.30;;;3.45;;
46765;SDS011;32527;51.986;5.842;2023-04-02T07:39:26;7.00;;;3.67;;
46765;SDS011;32527;51.986;5.842;2023-04-02T07:41:57;6.45;;;3.45;;
46765;SDS011;32527;51.986;5.842;2023-04-02T07:44:24;7.65;;;3.75;;
46765;SDS011;32527;51.986;5.842;2023-04-02T07:46:50;8.25;;;4.00;;
46765;SDS011;32527;51.986;5.842;2023-04-02T07:49:16;7.82;;;3.90;;
46765;SDS011;32527;51.986;5.842;2023-04-02T07:51:42;9.60;;;4.05;;
46765;SDS011;32527;51.986;5.842;2023-04-02T07:54:08;7.95;;;3.85;;
46765;SDS011;32527;51.986;5.842;2023-04-02T07:56:35;5.88;;;3.38;;
46765;SDS011;32527;51.986;5.842;2023-04-02T07:59:01;9.15;;;3.85;;
46765;SDS011;32527;51.986;5.842;2023-04-02T08:01:28;6.90;;;3.50;;
46765;SDS011;32527;51.986;5.842;2023-04-02T08:03:59;8.27;;;3.67;;
46765;SDS011;32527;51.986;5.842;2023-04-02T08:06:25;7.38;;;4.07;;
46765;SDS011;32527;51.986;5.842;2023-04-02T08:08:51;7.13;;;3.83;;
46765;SDS011;32527;51.986;5.842;2023-04-02T08:11:18;10.00;;;4.05;;
46765;SDS011;32527;51.986;5.842;2023-04-02T08:13:44;6.13;;;3.72;;
46765;SDS011;32527;51.986;5.842;2023-04-02T08:16:10;6.88;;;3.75;;
46765;SDS011;32527;51.986;5.842;2023-04-02T08:18:36;9.50;;;4.20;;
46765;SDS011;32527;51.986;5.842;2023-04-02T08:21:04;12.05;;;4.25;;
46765;SDS011;32527;51.986;5.842;2023-04-02T08:23:31;6.35;;;3.83;;
46765;SDS011;32527;51.986;5.842;2023-04-02T08:25:57;9.80;;;4.40;;
46765;SDS011;32527;51.986;5.842;2023-04-02T08:28:23;6.40;;;3.88;;
46765;SDS011;32527;51.986;5.842;2023-04-02T08:30:49;7.00;;;3.80;;
46765;SDS011;32527;51.986;5.842;2023-04-02T08:33:16;8.02;;;3.63;;
46765;SDS011;32527;51.986;5.842;2023-04-02T08:35:43;9.68;;;4.13;;
46765;SDS011;32527;51.986;5.842;2023-04-02T08:38:12;7.97;;;3.90;;
46765;SDS011;32527;51.986;5.842;2023-04-02T08:40:40;6.82;;;4.07;;
46765;SDS011;32527;51.986;5.842;2023-04-02T08:48:21;12.90;;;5.07;;
46765;SDS011;32527;51.986;5.842;2023-04-02T08:50:48;6.47;;;3.65;;
46765;SDS011;32527;51.986;5.842;2023-04-02T08:53:24;8.23;;;4.28;;
46765;SDS011;32527;51.986;5.842;2023-04-02T08:56:17;7.82;;;3.83;;
46765;SDS011;32527;51.986;5.842;2023-04-02T08:58:50;6.22;;;3.65;;
46765;SDS011;32527;51.986;5.842;2023-04-02T09:03:48;5.60;;;3.53;;
46765;SDS011;32527;51.986;5.842;2023-04-02T09:06:17;9.45;;;3.50;;
46765;SDS011;32527;51.986;5.842;2023-04-02T09:08:45;6.95;;;3.47;;
46765;SDS011;32527;51.986;5.842;2023-04-02T09:11:23;7.15;;;3.35;;
46765;SDS011;32527;51.986;5.842;2023-04-02T09:13:58;6.45;;;3.67;;
46765;SDS011;32527;51.986;5.842;2023-04-02T09:16:33;4.65;;;2.95;;
46765;SDS011;32527;51.986;5.842;2023-04-02T09:19:02;10.10;;;3.97;;
46765;SDS011;32527;51.986;5.842;2023-04-02T09:24:30;7.72;;;3.47;;
46765;SDS011;32527;51.986;5.842;2023-04-02T09:26:56;8.52;;;3.55;;
46765;SDS011;32527;51.986;5.842;2023-04-02T09:29:38;10.45;;;4.25;;
46765;SDS011;32527;51.986;5.842;2023-04-02T09:35:52;8.15;;;3.05;;
46765;SDS011;32527;51.986;5.842;2023-04-02T09:41:04;6.47;;;2.80;;
46765;SDS011;32527;51.986;5.842;2023-04-02T09:43:37;6.22;;;2.70;;
46765;SDS011;32527;51.986;5.842;2023-04-02T09:46:04;7.65;;;2.90;;
46765;SDS011;32527;51.986;5.842;2023-04-02T09:48:44;7.47;;;3.53;;
46765;SDS011;32527;51.986;5.842;2023-04-02T09:51:27;6.15;;;3.08;;
46765;SDS011;32527;51.986;5.842;2023-04-02T09:56:27;5.68;;;2.78;;
46765;SDS011;32527;51.986;5.842;2023-04-02T10:01:43;3.38;;;2.28;;
46765;SDS011;32527;51.986;5.842;2023-04-02T10:06:55;6.65;;;2.88;;
46765;SDS011;32527;51.986;5.842;2023-04-02T10:09:29;5.20;;;2.60;;
46765;SDS011;32527;51.986;5.842;2023-04-02T10:11:57;7.78;;;2.95;;
46765;SDS011;32527;51.986;5.842;2023-04-02T10:14:29;4.78;;;2.75;;
46765;SDS011;32527;51.986;5.842;2023-04-02T10:19:36;6.65;;;2.78;;
46765;SDS011;32527;51.986;5.842;2023-04-02T10:22:11;6.53;;;2.50;;
46765;SDS011;32527;51.986;5.842;2023-04-02T10:24:42;4.45;;;2.50;;
46765;SDS011;32527;51.986;5.842;2023-04-02T10:29:52;4.53;;;2.55;;
46765;SDS011;32527;51.986;5.842;2023-04-02T10:48:54;6.32;;;3.33;;
46765;SDS011;32527;51.986;5.842;2023-04-02T10:51:46;8.73;;;3.42;;
46765;SDS011;32527;51.986;5.842;2023-04-02T10:57:09;6.63;;;2.83;;
46765;SDS011;32527;51.986;5.842;2023-04-02T10:59:55;5.15;;;2.92;;
46765;SDS011;32527;51.986;5.842;2023-04-02T11:02:57;5.88;;;2.75;;
46765;SDS011;32527;51.986;5.842;2023-04-02T11:05:51;7.68;;;3.20;;
46765;SDS011;32527;51.986;5.842;2023-04-02T11:11:03;5.93;;;2.40;;
46765;SDS011;32527;51.986;5.842;2023-04-02T11:13:54;5.03;;;2.55;;
46765;SDS011;32527;51.986;5.842;2023-04-02T11:23:56;5.57;;;2.78;;
46765;SDS011;32527;51.986;5.842;2023-04-02T11:27:41;6.13;;;2.60;;
46765;SDS011;32527;51.986;5.842;2023-04-02T11:30:25;4.70;;;2.45;;
46765;SDS011;32527;51.986;5.842;2023-04-02T11:32:51;6.88;;;2.50;;
46765;SDS011;32527;51.986;5.842;2023-04-02T11:40:54;9.85;;;2.60;;
46765;SDS011;32527;51.986;5.842;2023-04-02T11:45:57;5.65;;;2.38;;
46765;SDS011;32527;51.986;5.842;2023-04-02T11:48:25;6.32;;;2.72;;
46765;SDS011;32527;51.986;5.842;2023-04-02T11:50:53;4.72;;;2.30;;
46765;SDS011;32527;51.986;5.842;2023-04-02T11:53:21;5.40;;;2.22;;
46765;SDS011;32527;51.986;5.842;2023-04-02T11:56:08;5.80;;;2.22;;
46765;SDS011;32527;51.986;5.842;2023-04-02T11:58:54;3.08;;;2.10;;
46765;SDS011;32527;51.986;5.842;2023-04-02T12:06:53;5.53;;;2.65;;
46765;SDS011;32527;51.986;5.842;2023-04-02T12:09:41;5.05;;;2.60;;
46765;SDS011;32527;51.986;5.842;2023-04-02T12:14:50;7.95;;;2.58;;
46765;SDS011;32527;51.986;5.842;2023-04-02T12:17:20;8.45;;;3.03;;
46765;SDS011;32527;51.986;5.842;2023-04-02T12:19:53;4.50;;;2.30;;
46765;SDS011;32527;51.986;5.842;2023-04-02T12:22:48;4.90;;;2.45;;
46765;SDS011;32527;51.986;5.842;2023-04-02T12:25:32;7.10;;;2.85;;
46765;SDS011;32527;51.986;5.842;2023-04-02T12:30:36;5.25;;;2.70;;
46765;SDS011;32527;51.986;5.842;2023-04-02T12:38:33;5.45;;;2.70;;
46765;SDS011;32527;51.986;5.842;2023-04-02T12:41:14;4.63;;;2.38;;
46765;SDS011;32527;51.986;5.842;2023-04-02T12:46:23;7.45;;;2.40;;
46765;SDS011;32527;51.986;5.842;2023-04-02T12:48:54;5.95;;;2.60;;
46765;SDS011;32527;51.986;5.842;2023-04-02T12:51:24;7.70;;;2.17;;
46765;SDS011;32527;51.986;5.842;2023-04-02T12:53:51;5.35;;;2.70;;
46765;SDS011;32527;51.986;5.842;2023-04-02T12:56:21;4.78;;;2.70;;
46765;SDS011;32527;51.986;5.842;2023-04-02T12:58:51;7.25;;;2.83;;
46765;SDS011;32527;51.986;5.842;2023-04-02T13:01:22;7.93;;;2.08;;
46765;SDS011;32527;51.986;5.842;2023-04-02T13:04:25;5.00;;;2.20;;
46765;SDS011;32527;51.986;5.842;2023-04-02T13:06:47;3.72;;;2.25;;
46765;SDS011;32527;51.986;5.842;2023-04-02T13:12:26;4.40;;;2.20;;
46765;SDS011;32527;51.986;5.842;2023-04-02T13:15:00;5.55;;;2.15;;
46765;SDS011;32527;51.986;5.842;2023-04-02T13:17:39;4.38;;;2.28;;
46765;SDS011;32527;51.986;5.842;2023-04-02T13:23:22;5.32;;;2.03;;
46765;SDS011;32527;51.986;5.842;2023-04-02T13:25:48;8.85;;;2.50;;
46765;SDS011;32527;51.986;5.842;2023-04-02T13:28:14;6.07;;;2.33;;
46765;SDS011;32527;51.986;5.842;2023-04-02T13:30:39;5.10;;;3.00;;
46765;SDS011;32527;51.986;5.842;2023-04-02T13:33:05;5.28;;;2.22;;
46765;SDS011;32527;51.986;5.842;2023-04-02T13:35:31;3.70;;;2.42;;
46765;SDS011;32527;51.986;5.842;2023-04-02T13:37:57;3.85;;;2.42;;
46765;SDS011;32527;51.986;5.842;2023-04-02T13:40:26;3.72;;;2.25;;
46765;SDS011;32527;51.986;5.842;2023-04-02T13:42:53;5.35;;;2.40;;
46765;SDS011;32527;51.986;5.842;2023-04-02T13:45:26;5.20;;;2.40;;
46765;SDS011;32527;51.986;5.842;2023-04-02T13:47:54;4.60;;;2.88;;
46765;SDS011;32527;51.986;5.842;2023-04-02T13:50:24;5.90;;;2.35;;
46765;SDS011;32527;51.986;5.842;2023-04-02T13:52:50;4.80;;;2.50;;
46765;SDS011;32527;51.986;5.842;2023-04-02T13:55:21;4.80;;;2.45;;
46765;SDS011;32527;51.986;5.842;2023-04-02T13:57:49;5.72;;;2.45;;
46765;SDS011;32527;51.986;5.842;2023-04-02T14:00:15;5.45;;;2.53;;
46765;SDS011;32527;51.986;5.842;2023-04-02T14:02:46;3.25;;;2.05;;
46765;SDS011;32527;51.986;5.842;2023-04-02T14:05:38;6.43;;;2.20;;
46765;SDS011;32527;51.986;5.842;2023-04-02T14:11:27;3.53;;;2.30;;
46765;SDS011;32527;51.986;5.842;2023-04-02T14:14:14;6.72;;;2.92;;
46765;SDS011;32527;51.986;5.842;2023-04-02T14:16:50;3.85;;;1.90;;
46765;SDS011;32527;51.986;5.842;2023-04-02T14:22:38;5.07;;;2.42;;
46765;SDS011;32527;51.986;5.842;2023-04-02T14:25:34;4.63;;;2.13;;
46765;SDS011;32527;51.986;5.842;2023-04-02T14:30:43;5.65;;;2.22;;
46765;SDS011;32527;51.986;5.842;2023-04-02T14:33:26;2.08;;;1.70;;
46765;SDS011;32527;51.986;5.842;2023-04-02T14:36:16;6.50;;;1.90;;
46765;SDS011;32527;51.986;5.842;2023-04-02T14:38:56;8.10;;;1.95;;
46765;SDS011;32527;51.986;5.842;2023-04-02T14:44:22;5.53;;;1.95;;
46765;SDS011;32527;51.986;5.842;2023-04-02T14:46:58;5.07;;;1.92;;
46765;SDS011;32527;51.986;5.842;2023-04-02T14:49:41;5.88;;;1.98;;
46765;SDS011;32527;51.986;5.842;2023-04-02T14:52:10;3.53;;;1.98;;
46765;SDS011;32527;51.986;5.842;2023-04-02T14:54:48;6.95;;;2.50;;
46765;SDS011;32527;51.986;5.842;2023-04-02T14:57:30;5.65;;;2.00;;
46765;SDS011;32527;51.986;5.842;2023-04-02T15:03:11;3.58;;;2.03;;
46765;SDS011;32527;51.986;5.842;2023-04-02T15:08:18;6.35;;;2.13;;
46765;SDS011;32527;51.986;5.842;2023-04-02T15:16:16;5.78;;;2.42;;
46765;SDS011;32527;51.986;5.842;2023-04-02T15:18:44;4.15;;;2.35;;
46765;SDS011;32527;51.986;5.842;2023-04-02T15:21:44;5.10;;;1.95;;
46765;SDS011;32527;51.986;5.842;2023-04-02T15:24:16;3.55;;;2.25;;
46765;SDS011;32527;51.986;5.842;2023-04-02T15:32:42;4.53;;;1.67;;
46765;SDS011;32527;51.986;5.842;2023-04-02T15:38:11;3.85;;;2.00;;
46765;SDS011;32527;51.986;5.842;2023-04-02T15:40:52;3.92;;;2.40;;
46765;SDS011;32527;51.986;5.842;2023-04-02T15:43:40;5.78;;;2.28;;
46765;SDS011;32527;51.986;5.842;2023-04-02T15:46:18;4.00;;;2.15;;
46765;SDS011;32527;51.986;5.842;2023-04-02T15:51:55;3.67;;;1.73;;
46765;SDS011;32527;51.986;5.842;2023-04-02T15:57:23;4.30;;;2.13;;
46765;SDS011;32527;51.986;5.842;2023-04-02T16:00:19;4.55;;;1.77;;
46765;SDS011;32527;51.986;5.842;2023-04-02T16:05:59;2.47;;;1.70;;
46765;SDS011;32527;51.986;5.842;2023-04-02T16:13:50;4.15;;;2.22;;
46765;SDS011;32527;51.986;5.842;2023-04-02T16:16:29;5.47;;;1.88;;
46765;SDS011;32527;51.986;5.842;2023-04-02T16:19:00;2.70;;;1.50;;
46765;SDS011;32527;51.986;5.842;2023-04-02T16:21:28;4.82;;;2.10;;
46765;SDS011;32527;51.986;5.842;2023-04-02T16:23:58;3.15;;;1.58;;
46765;SDS011;32527;51.986;5.842;2023-04-02T16:26:37;5.15;;;2.30;;
46765;SDS011;32527;51.986;5.842;2023-04-02T16:32:11;7.32;;;2.20;;
46765;SDS011;32527;51.986;5.842;2023-04-02T16:34:51;3.97;;;1.98;;
46765;SDS011;32527;51.986;5.842;2023-04-02T16:46:12;4.15;;;1.90;;
46765;SDS011;32527;51.986;5.842;2023-04-02T16:49:04;3.90;;;2.35;;
46765;SDS011;32527;51.986;5.842;2023-04-02T16:51:44;3.35;;;1.92;;
46765;SDS011;32527;51.986;5.842;2023-04-02T17:00:54;6.80;;;2.60;;
46765;SDS011;32527;51.986;5.842;2023-04-02T17:07:43;5.97;;;2.25;;
46765;SDS011;32527;51.986;5.842;2023-04-02T17:13:27;3.38;;;2.17;;
46765;SDS011;32527;51.986;5.842;2023-04-02T17:19:11;5.88;;;2.55;;
46765;SDS011;32527;51.986;5.842;2023-04-02T17:21:40;4.63;;;2.17;;
46765;SDS011;32527;51.986;5.842;2023-04-02T17:24:13;4.85;;;2.72;;
46765;SDS011;32527;51.986;5.842;2023-04-02T17:29:53;7.47;;;2.63;;
46765;SDS011;32527;51.986;5.842;2023-04-02T17:32:29;5.22;;;2.45;;
46765;SDS011;32527;51.986;5.842;2023-04-02T17:34:57;4.82;;;2.30;;
46765;SDS011;32527;51.986;5.842;2023-04-02T17:37:46;5.57;;;2.85;;
46765;SDS011;32527;51.986;5.842;2023-04-02T17:40:30;6.10;;;2.13;;
46765;SDS011;32527;51.986;5.842;2023-04-02T17:43:06;4.35;;;2.00;;
46765;SDS011;32527;51.986;5.842;2023-04-02T17:45:44;5.07;;;2.28;;
46765;SDS011;32527;51.986;5.842;2023-04-02T17:54:47;5.82;;;2.17;;
46765;SDS011;32527;51.986;5.842;2023-04-02T17:57:43;4.25;;;2.38;;
46765;SDS011;32527;51.986;5.842;2023-04-02T18:06:11;10.82;;;2.38;;
46765;SDS011;32527;51.986;5.842;2023-04-02T18:09:01;9.30;;;2.92;;
46765;SDS011;32527;51.986;5.842;2023-04-02T18:12:14;3.55;;;1.90;;
46765;SDS011;32527;51.986;5.842;2023-04-02T18:23:26;5.95;;;2.13;;
46765;SDS011;32527;51.986;5.842;2023-04-02T18:29:16;4.72;;;2.15;;
46765;SDS011;32527;51.986;5.842;2023-04-02T18:45:55;4.85;;;2.53;;
46765;SDS011;32527;51.986;5.842;2023-04-02T18:51:30;8.07;;;3.58;;
46765;SDS011;32527;51.986;5.842;2023-04-02T18:54:13;8.10;;;4.07;;
46765;SDS011;32527;51.986;5.842;2023-04-02T18:56:51;7.93;;;3.40;;
46765;SDS011;32527;51.986;5.842;2023-04-02T18:59:27;5.72;;;3.10;;
46765;SDS011;32527;51.986;5.842;2023-04-02T19:05:05;6.35;;;3.55;;
46765;SDS011;32527;51.986;5.842;2023-04-02T19:07:37;4.82;;;2.88;;
46765;SDS011;32527;51.986;5.842;2023-04-02T19:10:13;8.15;;;3.30;;
46765;SDS011;32527;51.986;5.842;2023-04-02T19:12:49;7.22;;;3.25;;
46765;SDS011;32527;51.986;5.842;2023-04-02T19:15:16;8.32;;;3.25;;
46765;SDS011;32527;51.986;5.842;2023-04-02T19:17:51;7.53;;;3.58;;
46765;SDS011;32527;51.986;5.842;2023-04-02T19:20:39;7.75;;;4.22;;
46765;SDS011;32527;51.986;5.842;2023-04-02T19:23:24;13.65;;;5.07;;
46765;SDS011;32527;51.986;5.842;2023-04-02T19:26:15;12.95;;;5.30;;
46765;SDS011;32527;51.986;5.842;2023-04-02T19:28:50;11.85;;;6.10;;
46765;SDS011;32527;51.986;5.842;2023-04-02T19:31:42;12.50;;;5.10;;
46765;SDS011;32527;51.986;5.842;2023-04-02T19:42:55;12.13;;;4.95;;
46765;SDS011;32527;51.986;5.842;2023-04-02T19:45:41;10.90;;;4.80;;
46765;SDS011;32527;51.986;5.842;2023-04-02T19:48:10;8.48;;;4.43;;
46765;SDS011;32527;51.986;5.842;2023-04-02T19:50:39;8.75;;;4.22;;
46765;SDS011;32527;51.986;5.842;2023-04-02T19:53:05;7.13;;;4.10;;
46765;SDS011;32527;51.986;5.842;2023-04-02T19:55:31;6.78;;;4.03;;
46765;SDS011;32527;51.986;5.842;2023-04-02T19:57:57;8.48;;;4.32;;
46765;SDS011;32527;51.986;5.842;2023-04-02T20:00:23;8.95;;;5.35;;
46765;SDS011;32527;51.986;5.842;2023-04-02T20:02:49;9.90;;;4.65;;
46765;SDS011;32527;51.986;5.842;2023-04-02T20:05:15;11.60;;;5.00;;